sensor_id;sensor_type;location;lat;lon;timestamp;P1;durP1;ratioP1;P2;durP2;ratioP2
27213;SDS011;14723;55.814;37.460;2023-08-12T00:00:46;18.55;;;14.93;;
27213;SDS011;14723;55.814;37.460;2023-08-12T00:03:52;18.02;;;13.07;;
27213;SDS011;14723;55.814;37.460;2023-08-12T00:06:57;18.85;;;13.77;;
27213;SDS011;14723;55.814;37.460;2023-08-12T00:10:03;18.08;;;13.48;;
27213;SDS011;14723;55.814;37.460;2023-08-12T00:13:12;18.77;;;12.38;;
27213;SDS011;14723;55.814;37.460;2023-08-12T00:16:19;18.27;;;13.25;;
27213;SDS011;14723;55.814;37.460;2023-08-12T00:19:25;18.40;;;13.27;;
27213;SDS011;14723;55.814;37.460;2023-08-12T00:22:30;18.65;;;12.90;;
27213;SDS011;14723;55.814;37.460;2023-08-12T00:25:36;19.08;;;12.75;;
27213;SDS011;14723;55.814;37.460;2023-08-12T00:28:44;20.48;;;13.20;;
27213;SDS011;14723;55.814;37.460;2023-08-12T00:31:49;17.40;;;11.98;;
27213;SDS011;14723;55.814;37.460;2023-08-12T00:34:55;16.75;;;12.10;;
27213;SDS011;14723;55.814;37.460;2023-08-12T00:38:00;14.02;;;12.10;;
27213;SDS011;14723;55.814;37.460;2023-08-12T00:41:06;13.93;;;12.30;;
27213;SDS011;14723;55.814;37.460;2023-08-12T00:44:14;17.88;;;12.20;;
27213;SDS011;14723;55.814;37.460;2023-08-12T00:50:25;18.85;;;12.98;;
27213;SDS011;14723;55.814;37.460;2023-08-12T00:53:31;16.02;;;11.82;;
27213;SDS011;14723;55.814;37.460;2023-08-12T00:56:36;13.90;;;11.85;;
27213;SDS011;14723;55.814;37.460;2023-08-12T00:59:44;16.25;;;11.45;;
27213;SDS011;14723;55.814;37.460;2023-08-12T01:02:49;17.98;;;11.82;;
27213;SDS011;14723;55.814;37.460;2023-08-12T01:05:56;16.67;;;12.02;;
27213;SDS011;14723;55.814;37.460;2023-08-12T01:09:02;14.30;;;11.77;;
27213;SDS011;14723;55.814;37.460;2023-08-12T01:12:10;17.75;;;12.27;;
27213;SDS011;14723;55.814;37.460;2023-08-12T01:15:21;21.30;;;12.73;;
27213;SDS011;14723;55.814;37.460;2023-08-12T01:18:28;13.77;;;11.77;;
27213;SDS011;14723;55.814;37.460;2023-08-12T01:21:34;15.18;;;11.88;;
27213;SDS011;14723;55.814;37.460;2023-08-12T01:24:44;15.55;;;11.15;;
27213;SDS011;14723;55.814;37.460;2023-08-12T01:27:50;13.48;;;12.00;;
27213;SDS011;14723;55.814;37.460;2023-08-12T01:30:56;17.92;;;12.30;;
27213;SDS011;14723;55.814;37.460;2023-08-12T01:34:05;13.23;;;11.07;;
27213;SDS011;14723;55.814;37.460;2023-08-12T01:37:14;13.93;;;11.88;;
27213;SDS011;14723;55.814;37.460;2023-08-12T01:43:29;21.65;;;13.45;;
27213;SDS011;14723;55.814;37.460;2023-08-12T01:46:35;18.95;;;11.52;;
27213;SDS011;14723;55.814;37.460;2023-08-12T01:49:41;12.95;;;11.20;;
27213;SDS011;14723;55.814;37.460;2023-08-12T01:52:46;18.08;;;12.13;;
27213;SDS011;14723;55.814;37.460;2023-08-12T01:55:52;15.43;;;12.02;;
27213;SDS011;14723;55.814;37.460;2023-08-12T01:59:00;14.85;;;11.75;;
27213;SDS011;14723;55.814;37.460;2023-08-12T02:02:06;15.88;;;11.50;;
27213;SDS011;14723;55.814;37.460;2023-08-12T02:05:11;16.20;;;11.82;;
27213;SDS011;14723;55.814;37.460;2023-08-12T02:08:16;15.77;;;12.35;;
27213;SDS011;14723;55.814;37.460;2023-08-12T02:11:22;15.98;;;12.40;;
27213;SDS011;14723;55.814;37.460;2023-08-12T02:14:30;17.20;;;12.32;;
27213;SDS011;14723;55.814;37.460;2023-08-12T02:20:42;15.93;;;12.00;;
27213;SDS011;14723;55.814;37.460;2023-08-12T02:23:47;14.82;;;12.15;;
27213;SDS011;14723;55.814;37.460;2023-08-12T02:26:53;19.90;;;12.52;;
27213;SDS011;14723;55.814;37.460;2023-08-12T02:30:01;15.70;;;12.45;;
27213;SDS011;14723;55.814;37.460;2023-08-12T02:33:07;25.17;;;12.88;;
27213;SDS011;14723;55.814;37.460;2023-08-12T02:36:12;15.02;;;12.60;;
27213;SDS011;14723;55.814;37.460;2023-08-12T02:39:18;18.73;;;13.13;;
27213;SDS011;14723;55.814;37.460;2023-08-12T02:42:23;18.15;;;13.73;;
27213;SDS011;14723;55.814;37.460;2023-08-12T02:45:32;15.85;;;13.23;;
27213;SDS011;14723;55.814;37.460;2023-08-12T02:48:38;18.15;;;13.57;;
27213;SDS011;14723;55.814;37.460;2023-08-12T02:51:44;16.33;;;13.88;;
27213;SDS011;14723;55.814;37.460;2023-08-12T02:54:50;19.80;;;13.90;;
27213;SDS011;14723;55.814;37.460;2023-08-12T02:57:55;24.92;;;13.50;;
27213;SDS011;14723;55.814;37.460;2023-08-12T03:01:03;16.55;;;13.15;;
27213;SDS011;14723;55.814;37.460;2023-08-12T03:04:09;19.50;;;13.82;;
27213;SDS011;14723;55.814;37.460;2023-08-12T03:07:14;17.02;;;13.68;;
27213;SDS011;14723;55.814;37.460;2023-08-12T03:10:20;16.23;;;13.23;;
27213;SDS011;14723;55.814;37.460;2023-08-12T03:13:25;19.00;;;14.32;;
27213;SDS011;14723;55.814;37.460;2023-08-12T03:16:34;19.40;;;14.85;;
27213;SDS011;14723;55.814;37.460;2023-08-12T03:19:41;19.55;;;14.10;;
27213;SDS011;14723;55.814;37.460;2023-08-12T03:22:46;18.20;;;13.00;;
27213;SDS011;14723;55.814;37.460;2023-08-12T03:25:52;18.40;;;13.50;;
27213;SDS011;14723;55.814;37.460;2023-08-12T03:28:57;17.38;;;13.52;;
27213;SDS011;14723;55.814;37.460;2023-08-12T03:32:06;19.10;;;13.88;;
27213;SDS011;14723;55.814;37.460;2023-08-12T03:35:11;17.58;;;13.32;;
27213;SDS011;14723;55.814;37.460;2023-08-12T03:38:21;22.45;;;13.15;;
27213;SDS011;14723;55.814;37.460;2023-08-12T03:41:26;18.15;;;13.38;;
27213;SDS011;14723;55.814;37.460;2023-08-12T03:44:34;15.50;;;13.35;;
27213;SDS011;14723;55.814;37.460;2023-08-12T03:47:43;17.23;;;13.23;;
27213;SDS011;14723;55.814;37.460;2023-08-12T03:50:50;22.00;;;13.52;;
27213;SDS011;14723;55.814;37.460;2023-08-12T03:53:55;21.33;;;13.80;;
27213;SDS011;14723;55.814;37.460;2023-08-12T03:57:02;17.80;;;13.15;;
27213;SDS011;14723;55.814;37.460;2023-08-12T04:00:11;15.68;;;13.10;;
27213;SDS011;14723;55.814;37.460;2023-08-12T04:03:20;17.42;;;13.70;;
27213;SDS011;14723;55.814;37.460;2023-08-12T04:09:30;17.13;;;12.73;;
27213;SDS011;14723;55.814;37.460;2023-08-12T04:12:36;16.88;;;13.25;;
27213;SDS011;14723;55.814;37.460;2023-08-12T04:15:42;17.45;;;12.57;;
27213;SDS011;14723;55.814;37.460;2023-08-12T04:18:50;23.88;;;14.27;;
27213;SDS011;14723;55.814;37.460;2023-08-12T04:21:55;18.20;;;12.48;;
27213;SDS011;14723;55.814;37.460;2023-08-12T04:25:02;16.38;;;12.98;;
27213;SDS011;14723;55.814;37.460;2023-08-12T04:28:09;16.25;;;11.98;;
27213;SDS011;14723;55.814;37.460;2023-08-12T04:31:14;15.70;;;12.88;;
27213;SDS011;14723;55.814;37.460;2023-08-12T04:34:23;19.85;;;12.55;;
27213;SDS011;14723;55.814;37.460;2023-08-12T04:37:28;17.60;;;13.23;;
27213;SDS011;14723;55.814;37.460;2023-08-12T04:40:37;18.67;;;12.98;;
27213;SDS011;14723;55.814;37.460;2023-08-12T04:46:48;32.50;;;12.68;;
27213;SDS011;14723;55.814;37.460;2023-08-12T04:49:57;16.63;;;13.27;;
27213;SDS011;14723;55.814;37.460;2023-08-12T04:53:05;15.07;;;12.50;;
27213;SDS011;14723;55.814;37.460;2023-08-12T04:56:11;18.63;;;12.75;;
27213;SDS011;14723;55.814;37.460;2023-08-12T04:59:16;14.13;;;12.55;;
27213;SDS011;14723;55.814;37.460;2023-08-12T05:02:22;17.05;;;11.98;;
27213;SDS011;14723;55.814;37.460;2023-08-12T05:05:31;17.73;;;13.23;;
27213;SDS011;14723;55.814;37.460;2023-08-12T05:11:41;16.80;;;12.77;;
27213;SDS011;14723;55.814;37.460;2023-08-12T05:14:47;19.35;;;13.15;;
27213;SDS011;14723;55.814;37.460;2023-08-12T05:17:52;22.15;;;11.73;;
27213;SDS011;14723;55.814;37.460;2023-08-12T05:21:00;15.20;;;11.90;;
27213;SDS011;14723;55.814;37.460;2023-08-12T05:24:06;15.77;;;11.63;;
27213;SDS011;14723;55.814;37.460;2023-08-12T05:27:14;18.70;;;11.73;;
27213;SDS011;14723;55.814;37.460;2023-08-12T05:30:19;19.05;;;11.75;;
27213;SDS011;14723;55.814;37.460;2023-08-12T05:33:24;19.75;;;12.20;;
27213;SDS011;14723;55.814;37.460;2023-08-12T05:36:32;16.67;;;10.65;;
27213;SDS011;14723;55.814;37.460;2023-08-12T05:39:38;17.35;;;11.57;;
27213;SDS011;14723;55.814;37.460;2023-08-12T05:42:43;16.13;;;11.63;;
27213;SDS011;14723;55.814;37.460;2023-08-12T05:45:49;13.02;;;10.65;;
27213;SDS011;14723;55.814;37.460;2023-08-12T05:48:55;15.23;;;11.07;;
27213;SDS011;14723;55.814;37.460;2023-08-12T05:52:03;14.10;;;10.60;;
27213;SDS011;14723;55.814;37.460;2023-08-12T05:55:08;16.40;;;11.15;;
27213;SDS011;14723;55.814;37.460;2023-08-12T05:58:13;15.00;;;11.10;;
27213;SDS011;14723;55.814;37.460;2023-08-12T06:01:19;12.73;;;10.30;;
27213;SDS011;14723;55.814;37.460;2023-08-12T06:04:24;11.80;;;10.60;;
27213;SDS011;14723;55.814;37.460;2023-08-12T06:07:32;12.85;;;10.57;;
27213;SDS011;14723;55.814;37.460;2023-08-12T06:10:38;15.38;;;11.13;;
27213;SDS011;14723;55.814;37.460;2023-08-12T06:13:43;17.00;;;11.77;;
27213;SDS011;14723;55.814;37.460;2023-08-12T06:16:48;17.77;;;10.63;;
27213;SDS011;14723;55.814;37.460;2023-08-12T06:19:56;15.32;;;11.23;;
27213;SDS011;14723;55.814;37.460;2023-08-12T06:23:07;14.55;;;11.30;;
27213;SDS011;14723;55.814;37.460;2023-08-12T06:26:12;18.17;;;11.57;;
27213;SDS011;14723;55.814;37.460;2023-08-12T06:29:17;13.68;;;11.45;;
27213;SDS011;14723;55.814;37.460;2023-08-12T06:32:23;19.70;;;11.40;;
27213;SDS011;14723;55.814;37.460;2023-08-12T06:35:28;17.15;;;10.80;;
27213;SDS011;14723;55.814;37.460;2023-08-12T06:38:36;21.50;;;11.52;;
27213;SDS011;14723;55.814;37.460;2023-08-12T06:41:42;13.73;;;10.80;;
27213;SDS011;14723;55.814;37.460;2023-08-12T06:44:49;13.07;;;10.45;;
27213;SDS011;14723;55.814;37.460;2023-08-12T06:47:55;13.25;;;10.05;;
27213;SDS011;14723;55.814;37.460;2023-08-12T06:51:00;16.77;;;9.98;;
27213;SDS011;14723;55.814;37.460;2023-08-12T06:54:14;13.38;;;9.45;;
27213;SDS011;14723;55.814;37.460;2023-08-12T06:57:20;24.30;;;10.73;;
27213;SDS011;14723;55.814;37.460;2023-08-12T07:00:26;17.52;;;10.00;;
27213;SDS011;14723;55.814;37.460;2023-08-12T07:03:31;15.05;;;9.95;;
27213;SDS011;14723;55.814;37.460;2023-08-12T07:06:37;15.18;;;10.10;;
27213;SDS011;14723;55.814;37.460;2023-08-12T07:09:45;13.75;;;10.18;;
27213;SDS011;14723;55.814;37.460;2023-08-12T07:15:56;20.92;;;10.05;;
27213;SDS011;14723;55.814;37.460;2023-08-12T07:19:01;16.27;;;10.45;;
27213;SDS011;14723;55.814;37.460;2023-08-12T07:22:07;15.30;;;10.57;;
27213;SDS011;14723;55.814;37.460;2023-08-12T07:25:15;21.88;;;10.80;;
27213;SDS011;14723;55.814;37.460;2023-08-12T07:28:21;18.58;;;9.85;;
27213;SDS011;14723;55.814;37.460;2023-08-12T07:31:26;15.15;;;9.55;;
27213;SDS011;14723;55.814;37.460;2023-08-12T07:34:32;19.98;;;10.30;;
27213;SDS011;14723;55.814;37.460;2023-08-12T07:37:38;15.95;;;9.65;;
27213;SDS011;14723;55.814;37.460;2023-08-12T07:40:45;20.48;;;9.98;;
27213;SDS011;14723;55.814;37.460;2023-08-12T07:46:56;13.35;;;10.35;;
27213;SDS011;14723;55.814;37.460;2023-08-12T07:50:01;19.85;;;11.38;;
27213;SDS011;14723;55.814;37.460;2023-08-12T07:53:06;18.35;;;10.57;;
27213;SDS011;14723;55.814;37.460;2023-08-12T07:56:15;16.58;;;10.93;;
27213;SDS011;14723;55.814;37.460;2023-08-12T08:02:25;19.63;;;10.50;;
27213;SDS011;14723;55.814;37.460;2023-08-12T08:05:31;18.15;;;10.60;;
27213;SDS011;14723;55.814;37.460;2023-08-12T08:08:36;14.15;;;10.32;;
27213;SDS011;14723;55.814;37.460;2023-08-12T08:11:44;17.00;;;10.63;;
27213;SDS011;14723;55.814;37.460;2023-08-12T08:17:55;11.57;;;9.88;;
27213;SDS011;14723;55.814;37.460;2023-08-12T08:21:03;19.35;;;10.55;;
27213;SDS011;14723;55.814;37.460;2023-08-12T08:24:08;14.38;;;11.43;;
27213;SDS011;14723;55.814;37.460;2023-08-12T08:27:17;15.43;;;10.95;;
27213;SDS011;14723;55.814;37.460;2023-08-12T08:30:23;15.10;;;11.55;;
27213;SDS011;14723;55.814;37.460;2023-08-12T08:33:28;19.23;;;11.50;;
27213;SDS011;14723;55.814;37.460;2023-08-12T08:36:34;17.65;;;11.98;;
27213;SDS011;14723;55.814;37.460;2023-08-12T08:39:39;18.92;;;11.98;;
27213;SDS011;14723;55.814;37.460;2023-08-12T08:42:49;18.15;;;12.18;;
27213;SDS011;14723;55.814;37.460;2023-08-12T08:45:56;16.85;;;12.05;;
27213;SDS011;14723;55.814;37.460;2023-08-12T08:49:02;19.50;;;13.30;;
27213;SDS011;14723;55.814;37.460;2023-08-12T08:52:09;22.92;;;12.82;;
27213;SDS011;14723;55.814;37.460;2023-08-12T08:55:15;16.60;;;12.20;;
27213;SDS011;14723;55.814;37.460;2023-08-12T08:58:26;23.50;;;13.55;;
27213;SDS011;14723;55.814;37.460;2023-08-12T09:04:37;16.65;;;12.55;;
27213;SDS011;14723;55.814;37.460;2023-08-12T09:07:43;16.48;;;13.30;;
27213;SDS011;14723;55.814;37.460;2023-08-12T09:10:49;19.33;;;12.73;;
27213;SDS011;14723;55.814;37.460;2023-08-12T09:13:57;16.13;;;12.40;;
27213;SDS011;14723;55.814;37.460;2023-08-12T09:20:08;27.55;;;12.63;;
27213;SDS011;14723;55.814;37.460;2023-08-12T09:23:18;18.45;;;12.48;;
27213;SDS011;14723;55.814;37.460;2023-08-12T09:26:24;17.83;;;12.48;;
27213;SDS011;14723;55.814;37.460;2023-08-12T09:29:32;15.93;;;12.25;;
27213;SDS011;14723;55.814;37.460;2023-08-12T09:32:38;17.27;;;12.02;;
27213;SDS011;14723;55.814;37.460;2023-08-12T09:35:43;19.85;;;12.65;;
27213;SDS011;14723;55.814;37.460;2023-08-12T09:38:49;24.27;;;13.20;;
27213;SDS011;14723;55.814;37.460;2023-08-12T09:41:55;16.38;;;12.63;;
27213;SDS011;14723;55.814;37.460;2023-08-12T09:45:05;15.75;;;12.40;;
27213;SDS011;14723;55.814;37.460;2023-08-12T09:48:11;23.90;;;14.82;;
27213;SDS011;14723;55.814;37.460;2023-08-12T09:51:18;21.73;;;13.82;;
27213;SDS011;14723;55.814;37.460;2023-08-12T09:54:25;17.77;;;13.13;;
27213;SDS011;14723;55.814;37.460;2023-08-12T09:57:31;16.55;;;13.55;;
27213;SDS011;14723;55.814;37.460;2023-08-12T10:00:41;18.75;;;14.10;;
27213;SDS011;14723;55.814;37.460;2023-08-12T10:03:48;22.00;;;14.93;;
27213;SDS011;14723;55.814;37.460;2023-08-12T10:06:54;21.40;;;13.45;;
27213;SDS011;14723;55.814;37.460;2023-08-12T10:10:00;19.75;;;13.15;;
27213;SDS011;14723;55.814;37.460;2023-08-12T10:13:07;16.95;;;13.00;;
27213;SDS011;14723;55.814;37.460;2023-08-12T10:16:16;17.23;;;13.07;;
27213;SDS011;14723;55.814;37.460;2023-08-12T10:19:23;16.88;;;13.82;;
27213;SDS011;14723;55.814;37.460;2023-08-12T10:22:30;24.23;;;12.98;;
27213;SDS011;14723;55.814;37.460;2023-08-12T10:25:36;17.35;;;13.55;;
27213;SDS011;14723;55.814;37.460;2023-08-12T10:28:42;15.93;;;13.88;;
27213;SDS011;14723;55.814;37.460;2023-08-12T10:31:50;19.67;;;13.63;;
27213;SDS011;14723;55.814;37.460;2023-08-12T10:34:57;19.70;;;12.85;;
27213;SDS011;14723;55.814;37.460;2023-08-12T10:38:03;19.45;;;14.13;;
27213;SDS011;14723;55.814;37.460;2023-08-12T10:41:17;17.98;;;14.07;;
27213;SDS011;14723;55.814;37.460;2023-08-12T10:44:26;18.33;;;14.10;;
27213;SDS011;14723;55.814;37.460;2023-08-12T10:47:34;19.92;;;14.63;;
27213;SDS011;14723;55.814;37.460;2023-08-12T10:50:43;19.38;;;13.60;;
27213;SDS011;14723;55.814;37.460;2023-08-12T10:53:48;21.73;;;14.32;;
27213;SDS011;14723;55.814;37.460;2023-08-12T10:57:06;15.95;;;13.63;;
27213;SDS011;14723;55.814;37.460;2023-08-12T11:00:13;21.58;;;15.40;;
27213;SDS011;14723;55.814;37.460;2023-08-12T11:03:22;20.50;;;14.23;;
27213;SDS011;14723;55.814;37.460;2023-08-12T11:06:27;20.77;;;14.90;;
27213;SDS011;14723;55.814;37.460;2023-08-12T11:09:33;22.38;;;15.20;;
27213;SDS011;14723;55.814;37.460;2023-08-12T11:12:40;22.10;;;15.02;;
27213;SDS011;14723;55.814;37.460;2023-08-12T11:15:45;16.77;;;14.93;;
27213;SDS011;14723;55.814;37.460;2023-08-12T11:18:54;20.45;;;16.83;;
27213;SDS011;14723;55.814;37.460;2023-08-12T11:25:06;22.00;;;15.48;;
27213;SDS011;14723;55.814;37.460;2023-08-12T11:28:13;19.13;;;15.20;;
27213;SDS011;14723;55.814;37.460;2023-08-12T11:31:18;22.65;;;16.00;;
27213;SDS011;14723;55.814;37.460;2023-08-12T11:34:27;25.08;;;15.75;;
27213;SDS011;14723;55.814;37.460;2023-08-12T11:40:37;27.30;;;16.50;;
27213;SDS011;14723;55.814;37.460;2023-08-12T11:43:42;21.38;;;16.88;;
27213;SDS011;14723;55.814;37.460;2023-08-12T11:46:48;20.63;;;16.98;;
27213;SDS011;14723;55.814;37.460;2023-08-12T11:49:56;27.85;;;17.63;;
27213;SDS011;14723;55.814;37.460;2023-08-12T11:53:05;28.42;;;18.20;;
27213;SDS011;14723;55.814;37.460;2023-08-12T11:56:11;23.13;;;15.90;;
27213;SDS011;14723;55.814;37.460;2023-08-12T11:59:17;25.30;;;16.77;;
27213;SDS011;14723;55.814;37.460;2023-08-12T12:02:22;21.45;;;15.38;;
27213;SDS011;14723;55.814;37.460;2023-08-12T12:05:30;20.48;;;14.98;;
27213;SDS011;14723;55.814;37.460;2023-08-12T12:08:36;19.70;;;15.07;;
27213;SDS011;14723;55.814;37.460;2023-08-12T12:11:43;22.33;;;15.38;;
27213;SDS011;14723;55.814;37.460;2023-08-12T12:14:50;21.77;;;15.68;;
27213;SDS011;14723;55.814;37.460;2023-08-12T12:17:55;26.63;;;17.23;;
27213;SDS011;14723;55.814;37.460;2023-08-12T12:21:04;24.17;;;15.98;;
27213;SDS011;14723;55.814;37.460;2023-08-12T12:24:09;22.20;;;16.92;;
27213;SDS011;14723;55.814;37.460;2023-08-12T12:27:15;23.17;;;16.08;;
27213;SDS011;14723;55.814;37.460;2023-08-12T12:30:21;24.63;;;15.40;;
27213;SDS011;14723;55.814;37.460;2023-08-12T12:33:26;24.65;;;16.55;;
27213;SDS011;14723;55.814;37.460;2023-08-12T12:36:35;21.92;;;14.55;;
27213;SDS011;14723;55.814;37.460;2023-08-12T12:39:41;24.55;;;15.82;;
27213;SDS011;14723;55.814;37.460;2023-08-12T12:42:47;20.50;;;14.85;;
27213;SDS011;14723;55.814;37.460;2023-08-12T12:45:52;21.95;;;14.88;;
27213;SDS011;14723;55.814;37.460;2023-08-12T12:48:58;18.75;;;13.95;;
27213;SDS011;14723;55.814;37.460;2023-08-12T12:52:06;19.67;;;13.43;;
27213;SDS011;14723;55.814;37.460;2023-08-12T12:55:12;19.45;;;13.88;;
27213;SDS011;14723;55.814;37.460;2023-08-12T12:58:17;17.17;;;13.00;;
27213;SDS011;14723;55.814;37.460;2023-08-12T13:01:25;15.32;;;12.27;;
27213;SDS011;14723;55.814;37.460;2023-08-12T13:04:30;19.38;;;12.13;;
27213;SDS011;14723;55.814;37.460;2023-08-12T13:07:38;17.73;;;12.77;;
27213;SDS011;14723;55.814;37.460;2023-08-12T13:10:44;18.85;;;12.95;;
27213;SDS011;14723;55.814;37.460;2023-08-12T13:13:49;16.73;;;12.55;;
27213;SDS011;14723;55.814;37.460;2023-08-12T13:16:56;18.58;;;12.40;;
27213;SDS011;14723;55.814;37.460;2023-08-12T13:20:03;16.58;;;12.07;;
27213;SDS011;14723;55.814;37.460;2023-08-12T13:23:12;17.33;;;12.73;;
27213;SDS011;14723;55.814;37.460;2023-08-12T13:26:18;15.80;;;12.43;;
27213;SDS011;14723;55.814;37.460;2023-08-12T13:29:23;18.02;;;12.63;;
27213;SDS011;14723;55.814;37.460;2023-08-12T13:32:29;17.13;;;12.13;;
27213;SDS011;14723;55.814;37.460;2023-08-12T13:35:37;22.45;;;13.25;;
27213;SDS011;14723;55.814;37.460;2023-08-12T13:38:45;16.65;;;11.57;;
27213;SDS011;14723;55.814;37.460;2023-08-12T13:41:50;20.33;;;12.02;;
27213;SDS011;14723;55.814;37.460;2023-08-12T13:44:57;17.35;;;12.02;;
27213;SDS011;14723;55.814;37.460;2023-08-12T13:48:05;18.80;;;13.25;;
27213;SDS011;14723;55.814;37.460;2023-08-12T13:51:11;23.60;;;13.80;;
27213;SDS011;14723;55.814;37.460;2023-08-12T13:54:19;23.63;;;13.48;;
27213;SDS011;14723;55.814;37.460;2023-08-12T13:57:24;19.75;;;13.07;;
27213;SDS011;14723;55.814;37.460;2023-08-12T14:00:30;17.35;;;12.55;;
27213;SDS011;14723;55.814;37.460;2023-08-12T14:03:35;20.40;;;13.25;;
27213;SDS011;14723;55.814;37.460;2023-08-12T14:06:41;19.75;;;12.80;;
27213;SDS011;14723;55.814;37.460;2023-08-12T14:09:49;19.35;;;12.07;;
27213;SDS011;14723;55.814;37.460;2023-08-12T14:12:54;18.00;;;12.95;;
27213;SDS011;14723;55.814;37.460;2023-08-12T14:15:59;16.13;;;12.07;;
27213;SDS011;14723;55.814;37.460;2023-08-12T14:19:05;21.30;;;13.80;;
27213;SDS011;14723;55.814;37.460;2023-08-12T14:22:11;19.35;;;13.10;;
27213;SDS011;14723;55.814;37.460;2023-08-12T14:25:19;15.90;;;13.98;;
27213;SDS011;14723;55.814;37.460;2023-08-12T14:31:30;23.92;;;14.05;;
27213;SDS011;14723;55.814;37.460;2023-08-12T14:34:35;19.23;;;13.70;;
27213;SDS011;14723;55.814;37.460;2023-08-12T14:37:41;21.33;;;14.23;;
27213;SDS011;14723;55.814;37.460;2023-08-12T14:40:49;21.35;;;15.15;;
27213;SDS011;14723;55.814;37.460;2023-08-12T14:43:55;18.00;;;13.45;;
27213;SDS011;14723;55.814;37.460;2023-08-12T14:47:00;20.58;;;12.98;;
27213;SDS011;14723;55.814;37.460;2023-08-12T14:50:06;19.35;;;12.95;;
27213;SDS011;14723;55.814;37.460;2023-08-12T14:53:12;18.75;;;13.57;;
27213;SDS011;14723;55.814;37.460;2023-08-12T14:56:20;18.80;;;12.23;;
27213;SDS011;14723;55.814;37.460;2023-08-12T14:59:25;17.90;;;12.88;;
27213;SDS011;14723;55.814;37.460;2023-08-12T15:02:31;18.60;;;12.75;;
27213;SDS011;14723;55.814;37.460;2023-08-12T15:05:36;18.08;;;12.95;;
27213;SDS011;14723;55.814;37.460;2023-08-12T15:08:42;18.13;;;12.13;;
27213;SDS011;14723;55.814;37.460;2023-08-12T15:11:50;14.52;;;12.18;;
27213;SDS011;14723;55.814;37.460;2023-08-12T15:18:01;12.43;;;10.60;;
27213;SDS011;14723;55.814;37.460;2023-08-12T15:21:06;15.93;;;10.60;;
27213;SDS011;14723;55.814;37.460;2023-08-12T15:24:14;13.82;;;11.25;;
27213;SDS011;14723;55.814;37.460;2023-08-12T15:27:23;14.07;;;10.02;;
27213;SDS011;14723;55.814;37.460;2023-08-12T15:30:28;13.93;;;10.05;;
27213;SDS011;14723;55.814;37.460;2023-08-12T15:33:34;13.23;;;10.07;;
27213;SDS011;14723;55.814;37.460;2023-08-12T15:36:39;12.60;;;9.18;;
27213;SDS011;14723;55.814;37.460;2023-08-12T15:39:45;14.18;;;10.00;;
27213;SDS011;14723;55.814;37.460;2023-08-12T15:42:53;11.25;;;9.10;;
27213;SDS011;14723;55.814;37.460;2023-08-12T15:45:59;11.00;;;8.75;;
27213;SDS011;14723;55.814;37.460;2023-08-12T15:49:04;12.15;;;9.50;;
27213;SDS011;14723;55.814;37.460;2023-08-12T15:52:13;15.85;;;9.63;;
27213;SDS011;14723;55.814;37.460;2023-08-12T15:55:18;13.90;;;9.45;;
27213;SDS011;14723;55.814;37.460;2023-08-12T15:58:26;13.13;;;9.40;;
27213;SDS011;14723;55.814;37.460;2023-08-12T16:01:32;15.43;;;9.55;;
27213;SDS011;14723;55.814;37.460;2023-08-12T16:04:38;14.45;;;9.50;;
27213;SDS011;14723;55.814;37.460;2023-08-12T16:07:43;13.43;;;9.90;;
27213;SDS011;14723;55.814;37.460;2023-08-12T16:10:49;10.77;;;8.90;;
27213;SDS011;14723;55.814;37.460;2023-08-12T16:13:57;17.33;;;10.27;;
27213;SDS011;14723;55.814;37.460;2023-08-12T16:17:05;13.80;;;10.18;;
27213;SDS011;14723;55.814;37.460;2023-08-12T16:20:11;11.57;;;9.30;;
27213;SDS011;14723;55.814;37.460;2023-08-12T16:23:17;12.52;;;8.98;;
27213;SDS011;14723;55.814;37.460;2023-08-12T16:26:22;19.55;;;13.85;;
27213;SDS011;14723;55.814;37.460;2023-08-12T16:29:30;14.85;;;10.73;;
27213;SDS011;14723;55.814;37.460;2023-08-12T16:32:35;13.07;;;9.65;;
27213;SDS011;14723;55.814;37.460;2023-08-12T16:35:41;15.00;;;9.85;;
27213;SDS011;14723;55.814;37.460;2023-08-12T16:38:50;15.35;;;10.90;;
27213;SDS011;14723;55.814;37.460;2023-08-12T16:41:55;15.40;;;10.10;;
27213;SDS011;14723;55.814;37.460;2023-08-12T16:45:04;17.02;;;10.95;;
27213;SDS011;14723;55.814;37.460;2023-08-12T16:48:10;16.75;;;10.07;;
27213;SDS011;14723;55.814;37.460;2023-08-12T16:51:16;11.90;;;10.02;;
27213;SDS011;14723;55.814;37.460;2023-08-12T16:54:22;14.73;;;10.30;;
27213;SDS011;14723;55.814;37.460;2023-08-12T16:57:29;13.50;;;10.73;;
27213;SDS011;14723;55.814;37.460;2023-08-12T17:00:37;17.00;;;10.65;;
27213;SDS011;14723;55.814;37.460;2023-08-12T17:03:43;17.15;;;10.57;;
27213;SDS011;14723;55.814;37.460;2023-08-12T17:06:48;13.68;;;10.80;;
27213;SDS011;14723;55.814;37.460;2023-08-12T17:09:55;13.98;;;10.48;;
27213;SDS011;14723;55.814;37.460;2023-08-12T17:13:01;19.40;;;10.98;;
27213;SDS011;14723;55.814;37.460;2023-08-12T17:16:10;12.68;;;10.38;;
27213;SDS011;14723;55.814;37.460;2023-08-12T17:19:15;13.00;;;9.68;;
27213;SDS011;14723;55.814;37.460;2023-08-12T17:22:20;12.95;;;10.65;;
27213;SDS011;14723;55.814;37.460;2023-08-12T17:25:26;14.50;;;10.57;;
27213;SDS011;14723;55.814;37.460;2023-08-12T17:28:31;13.95;;;10.75;;
27213;SDS011;14723;55.814;37.460;2023-08-12T17:31:39;16.20;;;11.48;;
27213;SDS011;14723;55.814;37.460;2023-08-12T17:37:49;15.30;;;10.77;;
27213;SDS011;14723;55.814;37.460;2023-08-12T17:40:55;17.63;;;12.15;;
27213;SDS011;14723;55.814;37.460;2023-08-12T17:44:00;16.88;;;10.27;;
27213;SDS011;14723;55.814;37.460;2023-08-12T17:47:09;20.05;;;11.32;;
27213;SDS011;14723;55.814;37.460;2023-08-12T17:53:19;17.48;;;11.25;;
27213;SDS011;14723;55.814;37.460;2023-08-12T17:56:25;14.60;;;10.23;;
27213;SDS011;14723;55.814;37.460;2023-08-12T17:59:30;16.13;;;10.70;;
27213;SDS011;14723;55.814;37.460;2023-08-12T18:02:38;15.60;;;10.50;;
27213;SDS011;14723;55.814;37.460;2023-08-12T18:05:44;14.98;;;11.18;;
27213;SDS011;14723;55.814;37.460;2023-08-12T18:08:49;15.40;;;11.13;;
27213;SDS011;14723;55.814;37.460;2023-08-12T18:11:55;17.33;;;11.70;;
27213;SDS011;14723;55.814;37.460;2023-08-12T18:15:00;16.15;;;10.93;;
27213;SDS011;14723;55.814;37.460;2023-08-12T18:21:16;15.60;;;11.60;;
27213;SDS011;14723;55.814;37.460;2023-08-12T18:24:21;16.17;;;11.65;;
27213;SDS011;14723;55.814;37.460;2023-08-12T18:27:27;17.10;;;11.35;;
27213;SDS011;14723;55.814;37.460;2023-08-12T18:30:32;16.83;;;11.00;;
27213;SDS011;14723;55.814;37.460;2023-08-12T18:33:37;18.33;;;12.48;;
27213;SDS011;14723;55.814;37.460;2023-08-12T18:36:46;17.58;;;12.25;;
27213;SDS011;14723;55.814;37.460;2023-08-12T18:39:51;19.10;;;11.85;;
27213;SDS011;14723;55.814;37.460;2023-08-12T18:42:57;18.30;;;11.93;;
27213;SDS011;14723;55.814;37.460;2023-08-12T18:46:02;18.45;;;12.27;;
27213;SDS011;14723;55.814;37.460;2023-08-12T18:49:08;16.63;;;11.45;;
27213;SDS011;14723;55.814;37.460;2023-08-12T18:52:16;18.42;;;12.20;;